Time;durP1;ratioP1;P1;durP2;ratioP2;P2;SDS_P1;SDS_P2;PMS_P1;PMS_P2;Temp;Humidity;BMP_temperature;BMP_pressure;BME280_temperature;BME280_humidity;BME280_pressure;Samples;Min_cycle;Max_cycle;Signal;HPM_P1;HPM_P2
2021/11/09 00:02:56;;;;;;;11.30;5.00;;;;;;;7.82;76.47;100909.59;139027;1191;108594;-81
2021/11/09 00:06:10;;;;;;;8.80;5.50;;;;;;;7.87;76.45;100912.73;139091;1190;108460;-81
2021/11/09 00:09:17;;;;;;;10.40;5.50;;;;;;;7.92;76.47;100912.20;139076;1196;109282;-81
2021/11/09 00:12:27;;;;;;;8.50;5.20;;;;;;;7.95;76.50;100916.19;138992;1196;108394;-81
2021/11/09 00:15:34;;;;;;;9.30;5.60;;;;;;;7.93;76.27;100915.35;139105;1193;108294;-80
2021/11/09 00:18:41;;;;;;;9.50;5.70;;;;;;;7.87;76.57;100924.27;139106;1191;108631;-80
2021/11/09 00:21:46;;;;;;;7.70;4.00;;;;;;;7.82;76.56;100925.86;138948;1190;108306;-82
2021/11/09 00:24:52;;;;;;;8.30;3.80;;;;;;;7.82;76.69;100926.80;138974;1190;108544;-79
2021/11/09 00:27:58;;;;;;;7.30;3.90;;;;;;;7.79;76.49;100932.13;138980;1190;106741;-78
2021/11/09 00:31:04;;;;;;;7.80;4.00;;;;;;;7.78;76.59;100934.85;138957;1190;107483;-80
2021/11/09 00:34:09;;;;;;;7.00;4.30;;;;;;;7.79;76.83;100939.79;138963;1192;108376;-80
2021/11/09 00:37:16;;;;;;;7.60;4.80;;;;;;;7.80;76.64;100937.89;138933;1190;108504;-82
2021/11/09 00:40:25;;;;;;;8.30;4.80;;;;;;;7.80;76.69;100938.42;138889;1190;108530;-79
2021/11/09 00:43:31;;;;;;;6.90;4.30;;;;;;;7.79;76.67;100945.42;138884;1190;108459;-79
2021/11/09 00:46:36;;;;;;;8.10;4.40;;;;;;;7.72;77.02;100953.80;138916;1191;108531;-82
2021/11/09 00:49:42;;;;;;;6.90;4.40;;;;;;;7.61;77.20;100960.95;139208;1190;108567;-79
2021/11/09 00:52:47;;;;;;;8.30;5.40;;;;;;;7.59;77.14;100968.20;138941;1193;108336;-79
2021/11/09 00:55:54;;;;;;;9.30;5.60;;;;;;;7.60;77.01;100971.51;139022;1192;108407;-78
2021/11/09 00:59:00;;;;;;;9.30;6.30;;;;;;;7.60;77.22;100975.77;139015;1190;106971;-79
2021/11/09 01:02:06;;;;;;;10.10;6.10;;;;;;;7.58;77.26;100978.02;138980;1190;107157;-79
2021/11/09 01:05:14;;;;;;;7.80;4.70;;;;;;;7.55;77.17;100980.60;138893;1190;108348;-77
2021/11/09 01:08:20;;;;;;;7.80;4.90;;;;;;;7.53;76.95;100979.98;139045;1192;108323;-77
2021/11/09 01:11:27;;;;;;;6.80;4.70;;;;;;;7.54;76.66;100983.83;138965;1198;108385;-77
2021/11/09 01:14:32;;;;;;;8.10;4.80;;;;;;;7.56;76.76;100978.88;138955;1191;108593;-76
2021/11/09 01:17:38;;;;;;;6.70;4.70;;;;;;;7.54;76.58;100976.89;138975;1190;108069;-76
2021/11/09 01:20:43;;;;;;;8.20;4.80;;;;;;;7.52;76.62;100983.60;138924;1190;108349;-77
2021/11/09 01:23:51;;;;;;;6.40;4.50;;;;;;;7.42;76.47;100990.54;138940;1190;108526;-77
2021/11/09 01:26:57;;;;;;;7.60;4.50;;;;;;;7.32;76.54;100996.79;139073;1191;108446;-78
2021/11/09 01:30:03;;;;;;;6.10;4.30;;;;;;;7.23;76.76;100995.66;138990;1193;107308;-77
2021/11/09 01:33:08;;;;;;;8.00;4.20;;;;;;;7.19;76.69;101001.84;138955;1196;107504;-76
2021/11/09 01:36:15;;;;;;;7.60;5.40;;;;;;;7.16;76.66;101001.17;138979;1191;108405;-84
2021/11/09 01:39:21;;;;;;;7.90;5.10;;;;;;;7.09;76.69;100997.55;139071;1190;107887;-83
2021/11/09 01:42:27;;;;;;;7.40;4.90;;;;;;;7.08;76.74;100998.71;139011;1190;108546;-81
2021/11/09 01:45:33;;;;;;;8.30;5.00;;;;;;;7.07;76.72;100999.63;139011;1191;107511;-82
2021/11/09 01:48:40;;;;;;;7.50;4.70;;;;;;;7.02;76.88;101005.54;139071;1190;108486;-84
2021/11/09 01:51:46;;;;;;;7.30;4.50;;;;;;;6.96;76.86;101004.35;139093;1191;108114;-81
2021/11/09 01:54:51;;;;;;;6.80;4.50;;;;;;;6.87;76.69;100999.49;139123;1190;108526;-75
2021/11/09 01:57:58;;;;;;;7.20;4.60;;;;;;;6.89;77.18;101003.12;138999;1190;108472;-75
2021/11/09 02:01:08;;;;;;;10.80;4.70;;;;;;;6.96;76.85;101004.71;138985;1190;108486;-77
2021/11/09 02:04:13;;;;;;;7.10;5.30;;;;;;;6.97;76.98;101008.00;138983;1191;108609;-78
2021/11/09 02:07:19;;;;;;;8.90;5.30;;;;;;;6.97;76.93;101016.52;138959;1191;108288;-79
2021/11/09 02:10:27;;;;;;;8.20;5.10;;;;;;;6.93;76.89;101022.09;138987;1190;108586;-78
2021/11/09 02:13:33;;;;;;;8.20;5.70;;;;;;;6.92;76.94;101025.14;139215;1190;107162;-78
2021/11/09 02:16:39;;;;;;;8.50;4.60;;;;;;;6.89;76.88;101023.59;139159;1190;107627;-78
2021/11/09 02:19:45;;;;;;;8.20;4.90;;;;;;;6.88;76.86;101030.20;138929;1192;108489;-79
2021/11/09 02:22:51;;;;;;;13.80;7.60;;;;;;;6.89;76.86;101033.48;139032;1193;108366;-81
2021/11/09 02:25:57;;;;;;;14.70;9.40;;;;;;;6.95;76.83;101033.80;139120;1190;107449;-81
2021/11/09 02:29:03;;;;;;;17.40;11.50;;;;;;;7.01;77.02;101037.42;139067;1190;108741;-79
2021/11/09 02:32:09;;;;;;;14.90;10.50;;;;;;;7.04;76.87;101046.79;139113;1197;108426;-81
2021/11/09 02:35:15;;;;;;;15.00;9.70;;;;;;;7.04;76.77;101051.36;138997;1191;108580;-79
2021/11/09 02:38:20;;;;;;;13.20;9.30;;;;;;;7.02;76.70;101054.83;139126;1190;108394;-82
2021/11/09 02:41:27;;;;;;;9.40;6.40;;;;;;;6.99;76.70;101064.96;139151;1190;108388;-82
2021/11/09 02:44:32;;;;;;;8.30;5.60;;;;;;;6.92;76.53;101061.81;139034;1195;108441;-83
2021/11/09 02:47:50;;;;;;;9.10;6.30;;;;;;;6.85;76.52;101068.48;139073;1191;108559;-83
2021/11/09 02:51:00;;;;;;;11.10;7.30;;;;;;;6.82;76.37;101068.82;139065;1190;108496;-83
2021/11/09 02:54:11;;;;;;;9.80;6.40;;;;;;;6.79;76.42;101068.32;139057;1190;108620;-81
2021/11/09 02:57:19;;;;;;;10.30;6.70;;;;;;;6.75;76.23;101071.52;139052;1190;108500;-83
2021/11/09 03:00:27;;;;;;;11.70;6.90;;;;;;;6.72;76.38;101068.17;139172;1186;108396;-82
2021/11/09 03:03:36;;;;;;;8.50;5.80;;;;;;;6.71;76.26;101074.73;139112;1190;108475;-82
2021/11/09 03:06:46;;;;;;;10.50;7.20;;;;;;;6.71;76.32;101083.45;139157;1196;108472;-82
2021/11/09 03:09:56;;;;;;;10.80;6.40;;;;;;;6.64;76.41;101086.90;139008;1191;108441;-82
2021/11/09 03:13:02;;;;;;;10.40;6.10;;;;;;;6.52;76.59;101088.83;139109;1193;108423;-83
2021/11/09 03:16:11;;;;;;;9.10;6.00;;;;;;;6.45;76.62;101091.78;138985;1190;108474;-82
2021/11/09 03:19:26;;;;;;;12.30;6.40;;;;;;;6.37;76.28;101096.73;139096;1190;108529;-81
2021/11/09 03:40:10;;;;;;;12.00;6.40;;;;;;;5.85;76.22;101122.63;138620;1194;108433;-80
2021/11/09 03:46:37;;;;;;;10.80;6.00;;;;;;;5.59;76.52;101128.23;138971;1190;108492;-82
2021/11/09 03:49:44;;;;;;;11.20;5.60;;;;;;;5.53;76.51;101130.16;138986;1190;108371;-81
2021/11/09 03:52:54;;;;;;;9.90;5.80;;;;;;;5.49;76.37;101131.31;139161;1190;108688;-85
2021/11/09 03:56:16;;;;;;;10.60;6.60;;;;;;;5.49;76.30;101138.69;139149;1191;108339;-81
2021/11/09 03:59:28;;;;;;;9.70;5.80;;;;;;;5.47;76.54;101137.61;139190;1184;108328;-80
2021/11/09 04:02:44;;;;;;;10.30;6.20;;;;;;;5.44;76.05;101142.35;139206;1190;108375;-84
2021/11/09 04:05:53;;;;;;;11.00;6.30;;;;;;;5.39;76.08;101144.46;139164;1190;108599;-74
2021/11/09 04:09:14;;;;;;;11.10;6.70;;;;;;;5.32;75.97;101149.48;139558;1190;107493;-82
2021/11/09 04:12:43;;;;;;;;;;;;;;;5.19;75.87;101149.09;139031;1193;107721;-79
2021/11/09 04:15:57;;;;;;;11.00;6.50;;;;;;;5.09;75.66;101154.85;139390;1193;108450;-84
2021/11/09 04:19:21;;;;;;;10.10;6.20;;;;;;;4.96;75.69;101156.52;139386;1193;107453;-80
2021/11/09 04:26:14;;;;;;;12.30;6.20;;;;;;;4.88;76.09;101177.13;139006;1192;108643;-81
2021/11/09 04:29:31;;;;;;;13.10;6.10;;;;;;;4.86;75.96;101189.89;139097;1193;107235;-80
2021/11/09 04:33:00;;;;;;;12.00;6.40;;;;;;;4.81;76.32;101202.73;139063;1193;108172;-79
2021/11/09 05:10:12;;;;;;;12.00;7.20;;;;;;;4.26;75.47;101247.36;138986;1197;107144;-82
2021/11/09 05:13:18;;;;;;;10.40;6.60;;;;;;;4.20;75.62;101249.84;139054;1196;108227;-80
2021/11/09 05:16:23;;;;;;;13.20;7.10;;;;;;;4.10;75.30;101263.78;139019;1190;107517;-81
2021/11/09 05:19:29;;;;;;;12.40;6.90;;;;;;;4.00;75.53;101276.50;139072;1190;106436;-79
2021/11/09 05:22:34;;;;;;;15.70;8.50;;;;;;;3.90;75.81;101287.73;139088;1190;108376;-81
2021/11/09 05:25:40;;;;;;;14.80;7.70;;;;;;;3.81;75.82;101297.22;139152;1190;108670;-78
2021/11/09 05:28:45;;;;;;;10.60;5.80;;;;;;;3.72;75.88;101303.02;138996;1190;108402;-83
2021/11/09 05:31:57;;;;;;;12.00;7.30;;;;;;;3.67;75.87;101308.56;139138;1178;108835;-83
2021/11/09 05:35:03;;;;;;;14.40;8.50;;;;;;;3.71;75.50;101316.93;139112;1184;108436;-82
2021/11/09 05:38:10;;;;;;;16.50;10.60;;;;;;;3.77;75.44;101323.01;139125;1190;109025;-83
2021/11/09 05:41:18;;;;;;;17.40;10.90;;;;;;;3.82;75.17;101334.88;139171;1198;107323;-81
2021/11/09 05:44:24;;;;;;;19.40;11.70;;;;;;;3.84;75.16;101339.14;139080;1190;109320;-80
2021/11/09 05:47:29;;;;;;;24.20;14.80;;;;;;;3.88;75.07;101344.04;139117;1190;108322;-83
2021/11/09 05:50:35;;;;;;;22.20;13.40;;;;;;;3.95;75.25;101347.89;139108;1190;109866;-83
2021/11/09 05:53:40;;;;;;;21.30;12.80;;;;;;;4.00;74.97;101350.81;139119;1190;108646;-83
2021/11/09 05:56:46;;;;;;;19.30;10.40;;;;;;;4.04;75.05;101355.33;139102;1190;108607;-82
2021/11/09 05:59:51;;;;;;;15.40;9.20;;;;;;;4.12;75.17;101361.58;139149;1190;108344;-82
2021/11/09 06:02:56;;;;;;;16.00;10.40;;;;;;;4.21;75.10;101373.74;139066;1190;108569;-83
2021/11/09 06:06:03;;;;;;;18.40;12.30;;;;;;;4.33;75.18;101375.17;139082;1190;108811;-83
2021/11/09 06:09:08;;;;;;;23.50;14.30;;;;;;;4.40;74.93;101382.73;139125;1195;108196;-83
2021/11/09 06:12:14;;;;;;;26.60;16.20;;;;;;;4.43;74.85;101389.96;139030;1190;107542;-82
2021/11/09 06:15:19;;;;;;;20.50;13.10;;;;;;;4.42;74.59;101394.95;139160;1190;108356;-83
2021/11/09 06:18:25;;;;;;;20.10;13.60;;;;;;;4.43;74.84;101397.89;139083;1198;108183;-83
2021/11/09 06:21:31;;;;;;;19.60;14.10;;;;;;;4.44;74.68;101404.73;139021;1177;108463;-82
2021/11/09 06:24:37;;;;;;;26.20;16.60;;;;;;;4.46;74.82;101409.55;139201;1191;108438;-83
2021/11/09 06:27:43;;;;;;;49.00;24.90;;;;;;;4.47;74.70;101414.05;139317;1190;108270;-83
2021/11/09 06:30:51;;;;;;;32.20;18.90;;;;;;;4.50;74.82;101416.73;139119;1190;108534;-83
2021/11/09 06:33:57;;;;;;;28.20;16.40;;;;;;;4.57;74.68;101423.21;139110;1190;109291;-83
2021/11/09 06:37:02;;;;;;;25.00;16.20;;;;;;;4.57;74.54;101429.55;139006;1190;108459;-83
2021/11/09 06:40:11;;;;;;;27.70;16.30;;;;;;;4.61;74.69;101431.64;139118;1193;109300;-83
2021/11/09 06:43:16;;;;;;;39.80;23.30;;;;;;;4.68;74.90;101440.91;139080;1190;108490;-83
2021/11/09 06:46:23;;;;;;;30.90;16.60;;;;;;;4.79;75.05;101455.45;139982;1190;107369;-81
2021/11/09 06:49:28;;;;;;;28.00;14.70;;;;;;;4.89;74.82;101455.80;139800;1190;108485;-83
2021/11/09 06:52:34;;;;;;;23.50;12.10;;;;;;;4.98;75.05;101460.73;139073;1190;108556;-82
2021/11/09 06:55:39;;;;;;;23.30;12.30;;;;;;;5.03;74.85;101471.41;139097;1190;108453;-82
2021/11/09 06:58:45;;;;;;;21.40;11.00;;;;;;;5.01;74.92;101481.92;139060;1190;108106;-82
2021/11/09 07:01:51;;;;;;;20.60;14.30;;;;;;;4.96;74.86;101485.16;139020;1191;107506;-82
2021/11/09 07:04:57;;;;;;;18.60;9.50;;;;;;;4.94;75.04;101491.46;139053;1190;108430;-83
2021/11/09 07:08:02;;;;;;;17.30;10.90;;;;;;;4.98;75.20;101502.75;139029;1190;108560;-82
2021/11/09 07:11:08;;;;;;;18.70;10.90;;;;;;;5.02;75.06;101510.44;139121;1190;109328;-82
2021/11/09 07:14:13;;;;;;;21.40;12.90;;;;;;;5.00;75.01;101514.91;139113;1187;108452;-82
2021/11/09 07:17:19;;;;;;;25.60;12.80;;;;;;;4.98;75.00;101518.42;139041;1190;108576;-83
2021/11/09 07:20:24;;;;;;;20.30;12.30;;;;;;;5.01;75.22;101523.51;139143;1190;107137;-83
2021/11/09 07:23:30;;;;;;;21.70;12.70;;;;;;;5.04;75.18;101529.91;139065;1190;108420;-82
2021/11/09 07:26:36;;;;;;;19.70;13.40;;;;;;;5.07;75.25;101538.73;139141;1190;108340;-80
2021/11/09 08:00:01;;;;;;;17.10;11.90;;;;;;;6.49;74.74;101578.99;126471;1328;108369;-82
2021/11/09 08:03:11;;;;;;;19.40;12.80;;;;;;;6.57;74.58;101583.80;129131;1297;107684;-83
2021/11/09 08:06:19;;;;;;;19.60;13.00;;;;;;;6.63;74.45;101589.61;129177;1297;108588;-83
2021/11/09 08:09:25;;;;;;;20.30;13.60;;;;;;;6.68;74.65;101594.23;129105;1297;108709;-84
2021/11/09 08:12:28;;;;;;;20.30;11.10;;;;;;;6.71;74.71;101597.65;129070;1297;108643;-83
2021/11/09 08:15:31;;;;;;;20.70;12.30;;;;;;;6.73;74.40;101596.10;129085;1297;95793;-83
2021/11/09 08:18:34;;;;;;;20.70;13.10;;;;;;;6.80;74.33;101603.63;129051;1296;108770;-83
2021/11/09 08:21:37;;;;;;;20.00;12.80;;;;;;;6.85;73.94;101611.80;129108;1297;95399;-83
2021/11/09 08:24:39;;;;;;;19.80;12.60;;;;;;;6.76;73.51;101611.98;129113;1297;95347;-83
2021/11/09 08:27:43;;;;;;;27.30;17.00;;;;;;;6.65;73.83;101616.90;129108;1297;95308;-83
2021/11/09 08:30:48;;;;;;;31.50;18.80;;;;;;;6.61;74.25;101618.04;129138;1294;108715;-82
2021/11/09 08:33:51;;;;;;;26.20;16.20;;;;;;;6.63;74.14;101625.15;129117;1297;108618;-83
2021/11/09 08:36:55;;;;;;;27.50;16.70;;;;;;;6.54;73.56;101625.17;129128;1296;108903;-82
2021/11/09 08:40:00;;;;;;;27.70;16.50;;;;;;;6.37;74.04;101627.79;129171;1297;108642;-83
2021/11/09 08:43:03;;;;;;;28.00;17.50;;;;;;;6.41;74.32;101631.66;129241;1294;108692;-83
2021/11/09 08:46:13;;;;;;;25.70;14.30;;;;;;;6.46;74.27;101635.55;129063;1297;108690;-82
2021/11/09 08:49:19;;;;;;;31.40;15.60;;;;;;;6.43;73.98;101640.52;129033;1297;108731;-83
2021/11/09 08:52:24;;;;;;;28.30;16.90;;;;;;;6.46;74.02;101646.54;129051;1297;108700;-82
2021/11/09 08:55:39;;;;;;;50.40;28.90;;;;;;;6.50;74.43;101651.05;129627;1290;108778;-82
2021/11/09 09:05:24;;;;;;;25.70;15.40;;;;;;;6.58;73.77;101662.44;129986;1286;108530;-84
2021/11/09 09:08:27;;;;;;;23.50;14.70;;;;;;;6.55;73.83;101668.08;130008;1286;95799;-83
2021/11/09 09:11:30;;;;;;;27.60;18.00;;;;;;;6.60;73.96;101677.15;130048;1287;95295;-83
2021/11/09 09:14:33;;;;;;;62.30;41.10;;;;;;;6.60;74.32;101682.13;129953;1287;95503;-83
2021/11/09 09:17:36;;;;;;;24.00;14.90;;;;;;;6.70;74.27;101689.14;129980;1286;95299;-82
2021/11/09 09:20:42;;;;;;;23.40;14.50;;;;;;;6.81;74.09;101685.42;130004;1287;108650;-82
2021/11/09 09:23:48;;;;;;;23.20;14.90;;;;;;;6.94;73.81;101687.45;129996;1286;108805;-82
2021/11/09 09:26:53;;;;;;;22.70;13.50;;;;;;;7.11;73.74;101693.72;130041;1287;108629;-82
2021/11/09 09:30:16;;;;;;;21.70;13.60;;;;;;;7.25;73.64;101699.88;130014;1287;108664;-82
2021/11/09 09:33:38;;;;;;;22.20;13.50;;;;;;;7.39;73.68;101703.45;130010;1286;108656;-82
2021/11/09 09:56:51;;;;;;;19.20;12.60;;;;;;;7.77;72.79;101728.69;130090;1286;108688;-82
2021/11/09 09:59:55;;;;;;;17.30;10.90;;;;;;;7.81;72.56;101733.70;129996;1286;108877;-82
2021/11/09 10:02:59;;;;;;;17.10;11.60;;;;;;;7.90;72.55;101732.27;130079;1286;108652;-82
2021/11/09 10:06:02;;;;;;;18.30;12.20;;;;;;;8.00;72.55;101728.09;130032;1286;108640;-82
2021/11/09 10:09:05;;;;;;;19.30;12.60;;;;;;;8.08;72.27;101728.63;130036;1286;108290;-82
2021/11/09 10:12:25;;;;;;;17.90;11.80;;;;;;;8.08;72.26;101730.52;129979;1285;96142;-82
2021/11/09 10:15:31;;;;;;;17.80;12.00;;;;;;;8.12;71.95;101727.66;130034;1287;108637;-82
2021/11/09 10:18:43;;;;;;;15.70;11.30;;;;;;;8.05;71.73;101727.36;130011;1285;108880;-83
2021/11/09 10:21:46;;;;;;;18.50;11.30;;;;;;;7.96;71.67;101729.77;130041;1286;108621;-82
2021/11/09 10:24:54;;;;;;;15.60;10.70;;;;;;;7.86;72.04;101736.23;130023;1284;95817;-83
2021/11/09 10:28:01;;;;;;;18.50;12.10;;;;;;;7.82;71.60;101735.57;130034;1287;108633;-83
2021/11/09 10:31:07;;;;;;;16.20;11.80;;;;;;;7.80;71.81;101737.33;130069;1286;108633;-83
2021/11/09 10:34:22;;;;;;;18.70;12.70;;;;;;;7.79;71.59;101739.33;130127;1285;108701;-82
2021/11/09 10:37:27;;;;;;;17.40;12.40;;;;;;;7.81;72.05;101742.56;130078;1287;108102;-82
2021/11/09 10:40:32;;;;;;;19.00;13.00;;;;;;;7.79;71.51;101741.78;130119;1286;108748;-83
2021/11/09 10:43:35;;;;;;;17.80;12.30;;;;;;;7.85;71.68;101740.56;130126;1285;107670;-82
2021/11/09 10:46:38;;;;;;;17.20;12.20;;;;;;;7.96;72.07;101740.21;130050;1286;108132;-82
2021/11/09 10:49:47;;;;;;;19.00;11.10;;;;;;;8.07;71.71;101744.05;130103;1286;96172;-83
2021/11/09 10:53:00;;;;;;;16.10;9.80;;;;;;;8.16;71.63;101746.30;130037;1286;109062;-81
2021/11/09 10:56:14;;;;;;;17.70;11.30;;;;;;;8.24;71.26;101747.40;129922;1286;108592;-82
2021/11/09 10:59:22;;;;;;;14.50;10.00;;;;;;;8.21;71.23;101750.45;130030;1286;108790;-82
2021/11/09 11:05:50;;;;;;;15.30;10.20;;;;;;;8.10;70.68;101757.57;130130;1287;108673;-82
2021/11/09 11:08:54;;;;;;;13.40;9.70;;;;;;;7.99;70.53;101757.53;130046;1287;96078;-82
2021/11/09 11:11:59;;;;;;;13.40;9.50;;;;;;;7.86;70.62;101753.20;130034;1286;108792;-82
2021/11/09 11:15:11;;;;;;;14.70;10.40;;;;;;;7.77;70.93;101747.78;130203;1286;108562;-80
2021/11/09 11:18:29;;;;;;;14.20;10.70;;;;;;;7.69;70.60;101748.13;130151;1287;108811;-83
2021/11/09 11:21:31;;;;;;;14.20;10.00;;;;;;;7.64;71.12;101745.77;130085;1286;108186;-81
2021/11/09 11:24:36;;;;;;;17.60;12.00;;;;;;;7.61;70.89;101741.70;130030;1286;95721;-82
2021/11/09 11:27:38;;;;;;;19.50;11.70;;;;;;;7.56;71.00;101751.23;130058;1286;107473;-82
2021/11/09 11:30:41;;;;;;;20.60;12.90;;;;;;;7.46;70.76;101757.34;130016;1286;96024;-83
2021/11/09 11:33:44;;;;;;;18.40;12.10;;;;;;;7.39;71.08;101760.27;130132;1286;95547;-80
2021/11/09 11:36:49;;;;;;;17.60;11.10;;;;;;;7.41;71.41;101760.51;130002;1285;108629;-81
2021/11/09 11:39:57;;;;;;;16.20;10.50;;;;;;;7.47;71.48;101759.40;129815;1286;108711;-83
2021/11/09 11:42:59;;;;;;;20.00;11.80;;;;;;;7.54;71.43;101761.10;130081;1286;108727;-82
2021/11/09 11:46:02;;;;;;;21.60;13.80;;;;;;;7.62;71.22;101760.61;130021;1285;95742;-82
2021/11/09 11:49:07;;;;;;;19.00;12.50;;;;;;;7.66;71.12;101758.07;130053;1287;95314;-81
2021/11/09 11:52:16;;;;;;;17.90;12.20;;;;;;;7.68;71.13;101758.28;130067;1286;108722;-82
2021/11/09 11:55:22;;;;;;;17.30;11.50;;;;;;;7.73;71.17;101757.60;130036;1285;108835;-82
2021/11/09 11:58:33;;;;;;;15.40;10.40;;;;;;;7.73;70.84;101760.62;130174;1286;108576;-82
2021/11/09 12:01:39;;;;;;;15.60;10.10;;;;;;;7.72;71.01;101762.29;130162;1286;108633;-82
2021/11/09 12:04:52;;;;;;;14.70;10.40;;;;;;;7.75;70.89;101758.36;130080;1286;108725;-80
2021/11/09 12:07:58;;;;;;;13.60;8.80;;;;;;;7.78;71.00;101754.99;130106;1285;107677;-82
2021/11/09 12:11:03;;;;;;;12.60;9.30;;;;;;;7.80;70.67;101758.23;130020;1286;107770;-83
2021/11/09 12:14:09;;;;;;;13.60;9.30;;;;;;;7.83;70.82;101756.64;130080;1284;107729;-82
2021/11/09 12:17:13;;;;;;;13.80;9.20;;;;;;;7.92;70.63;101763.85;130096;1284;108839;-81
2021/11/09 12:20:17;;;;;;;12.60;8.90;;;;;;;7.95;70.62;101768.23;130169;1287;108683;-81
2021/11/09 12:23:21;;;;;;;11.50;7.70;;;;;;;7.96;70.77;101768.90;130034;1286;106611;-83
2021/11/09 12:26:42;;;;;;;11.20;7.30;;;;;;;7.96;70.53;101768.05;130063;1286;96204;-82
2021/11/09 12:29:48;;;;;;;12.60;8.10;;;;;;;7.98;70.28;101768.42;130068;1286;108636;-82
2021/11/09 12:33:03;;;;;;;11.00;8.00;;;;;;;8.00;70.19;101766.52;130066;1286;109508;-81
2021/11/09 12:36:21;;;;;;;10.00;7.40;;;;;;;8.11;70.88;101766.88;130369;1286;107645;-82
2021/11/09 12:39:24;;;;;;;8.20;5.80;;;;;;;8.32;70.42;101762.14;130135;1287;108805;-82
2021/11/09 12:43:06;;;;;;;8.20;6.30;;;;;;;8.36;70.07;101761.38;130056;1286;108803;-83
2021/11/09 12:46:13;;;;;;;9.00;6.30;;;;;;;8.32;70.16;101764.29;130253;1285;108688;-83
2021/11/09 12:49:19;;;;;;;9.20;6.40;;;;;;;8.26;70.32;101766.27;130137;1286;108766;-83
2021/11/09 12:52:22;;;;;;;8.00;6.20;;;;;;;8.17;70.26;101767.88;130064;1286;107680;-82
2021/11/09 12:55:24;;;;;;;8.50;6.60;;;;;;;8.11;70.35;101771.14;130208;1287;97387;-83
2021/11/09 12:58:31;;;;;;;9.70;6.90;;;;;;;8.08;70.10;101772.77;130048;1287;97669;-83
2021/11/09 13:01:42;;;;;;;9.70;6.90;;;;;;;8.04;70.36;101768.71;130335;1287;108715;-83
2021/11/09 13:04:48;;;;;;;8.70;6.70;;;;;;;8.02;70.32;101772.58;130301;1286;108582;-82
2021/11/09 13:07:52;;;;;;;10.00;7.00;;;;;;;8.00;70.13;101767.54;130136;1287;108667;-82
2021/11/09 13:10:57;;;;;;;9.10;6.40;;;;;;;7.95;70.50;101768.63;130089;1286;108676;-82
2021/11/09 13:14:05;;;;;;;8.60;5.80;;;;;;;7.92;70.27;101765.63;130081;1286;108658;-82
2021/11/09 13:17:14;;;;;;;9.50;5.90;;;;;;;7.90;70.37;101766.14;130225;1284;109524;-81
2021/11/09 13:20:20;;;;;;;9.50;5.70;;;;;;;7.89;70.28;101766.33;130141;1285;108620;-82
2021/11/09 13:23:28;;;;;;;10.10;6.80;;;;;;;7.89;70.13;101768.32;130343;1285;108677;-81
2021/11/09 13:26:31;;;;;;;11.00;7.20;;;;;;;7.88;70.15;101770.14;130108;1284;108944;-82
2021/11/09 13:29:48;;;;;;;10.40;7.70;;;;;;;7.83;69.92;101766.02;130219;1286;97722;-82
2021/11/09 13:32:53;;;;;;;10.70;7.30;;;;;;;7.78;69.76;101768.30;130356;1287;107931;-83
2021/11/09 13:35:58;;;;;;;10.90;7.80;;;;;;;7.71;69.88;101764.27;130399;1286;108029;-83
2021/11/09 13:39:00;;;;;;;12.10;7.70;;;;;;;7.65;69.91;101765.59;130361;1287;108814;-80
2021/11/09 13:42:06;;;;;;;11.20;6.90;;;;;;;7.57;69.95;101763.63;130277;1285;97733;-83
2021/11/09 13:45:14;;;;;;;12.60;8.50;;;;;;;7.48;69.85;101766.63;130310;1284;108727;-82
2021/11/09 13:48:20;;;;;;;11.90;8.40;;;;;;;7.41;69.86;101767.02;130313;1286;108832;-82
2021/11/09 13:51:26;;;;;;;12.90;8.10;;;;;;;7.35;70.12;101771.53;130269;1286;107528;-80
2021/11/09 13:54:41;;;;;;;11.20;7.80;;;;;;;7.27;70.03;101775.51;130392;1286;108764;-80
2021/11/09 13:57:44;;;;;;;10.80;6.70;;;;;;;7.20;69.89;101774.02;130329;1287;108590;-84
2021/11/09 14:00:50;;;;;;;12.90;7.70;;;;;;;7.15;69.96;101775.20;130007;1287;107013;-82
2021/11/09 14:04:02;;;;;;;13.70;7.70;;;;;;;7.13;69.78;101780.79;130352;1285;108598;-81
2021/11/09 14:10:51;;;;;;;12.00;8.00;;;;;;;7.09;70.24;101780.00;130132;1286;108247;-81
2021/11/09 14:17:31;;;;;;;12.30;8.00;;;;;;;6.96;70.07;101777.77;130097;1286;108553;-81
2021/11/09 14:20:34;;;;;;;12.00;7.90;;;;;;;6.89;69.99;101776.80;130275;1286;108820;-80
2021/11/09 14:23:40;;;;;;;14.10;8.70;;;;;;;6.79;70.02;101776.80;130246;1286;97624;-82
2021/11/09 14:26:46;;;;;;;17.70;10.80;;;;;;;6.71;70.09;101782.09;130021;1286;108780;-81
2021/11/09 14:29:54;;;;;;;17.20;11.20;;;;;;;6.62;70.49;101785.95;130172;1286;108574;-80
2021/11/09 14:33:14;;;;;;;16.00;10.70;;;;;;;6.54;70.23;101783.44;130074;1286;108110;-82
2021/11/09 14:36:30;;;;;;;15.40;9.90;;;;;;;6.42;70.43;101780.56;129888;1285;108584;-82
2021/11/09 14:39:38;;;;;;;16.40;9.60;;;;;;;6.33;70.30;101778.61;130141;1286;108689;-81
2021/11/09 14:42:48;;;;;;;16.80;9.60;;;;;;;6.25;70.45;101784.15;130099;1286;108711;-82
2021/11/09 14:45:54;;;;;;;17.30;11.00;;;;;;;6.20;70.34;101781.11;130167;1286;108665;-83
2021/11/09 14:49:07;;;;;;;21.10;12.50;;;;;;;6.12;70.40;101783.16;130092;1285;108614;-81
2021/11/09 14:52:10;;;;;;;20.40;11.90;;;;;;;6.05;70.43;101788.70;130114;1287;108641;-82
2021/11/09 14:55:19;;;;;;;17.90;10.20;;;;;;;5.97;70.49;101785.27;130142;1286;96681;-82
2021/11/09 14:58:27;;;;;;;14.10;9.50;;;;;;;5.83;70.27;101784.58;130172;1287;108435;-82
2021/11/09 15:01:35;;;;;;;14.90;9.60;;;;;;;5.69;70.37;101790.11;130166;1287;109599;-82
2021/11/09 15:04:41;;;;;;;15.70;9.40;;;;;;;5.57;70.48;101794.13;130191;1285;108622;-82
2021/11/09 15:07:55;;;;;;;15.10;9.10;;;;;;;5.45;70.50;101794.38;130347;1286;108664;-79
2021/11/09 15:11:11;;;;;;;14.90;8.80;;;;;;;5.32;70.20;101797.19;130513;1284;108851;-79
2021/11/09 15:30:55;;;;;;;18.60;10.50;;;;;;;4.74;70.12;101813.07;130341;1286;108492;-87
2021/11/09 15:34:07;;;;;;;19.30;10.60;;;;;;;4.69;69.96;101814.02;130410;1286;108588;-86
2021/11/09 15:37:23;;;;;;;16.90;10.60;;;;;;;4.63;70.03;101816.61;130628;1286;107968;-84
2021/11/09 15:40:26;;;;;;;20.00;12.30;;;;;;;4.56;69.94;101823.63;130732;1287;107697;-83
2021/11/09 15:43:32;;;;;;;20.10;12.20;;;;;;;4.48;69.90;101831.95;130427;1287;125920;-82
2021/11/09 15:46:35;;;;;;;25.40;14.90;;;;;;;4.42;70.11;101827.19;130318;1287;107710;-83
2021/11/09 15:49:39;;;;;;;22.20;12.60;;;;;;;4.35;69.97;101825.55;130470;1286;97643;-83
2021/11/09 15:52:43;;;;;;;23.00;13.60;;;;;;;4.24;69.90;101824.65;130471;1285;108749;-81
2021/11/09 15:55:45;;;;;;;21.80;12.70;;;;;;;4.13;69.68;101822.55;130307;1287;108882;-80
2021/11/09 15:58:48;;;;;;;24.30;13.10;;;;;;;4.01;69.84;101826.29;130197;1287;97077;-77
2021/11/09 16:01:52;;;;;;;22.60;13.30;;;;;;;3.92;69.82;101828.30;130305;1286;96652;-78
2021/11/09 16:04:55;;;;;;;24.60;14.10;;;;;;;3.84;69.77;101829.00;130523;1287;108648;-78
2021/11/09 16:07:57;;;;;;;25.60;13.70;;;;;;;3.78;69.78;101827.90;130149;1285;107727;-84
2021/11/09 16:11:03;;;;;;;25.50;14.20;;;;;;;3.71;69.90;101830.83;130326;1284;97084;-79
2021/11/09 16:14:06;;;;;;;27.00;15.50;;;;;;;3.69;69.66;101833.73;130271;1285;107684;-82
2021/11/09 16:17:10;;;;;;;35.90;20.00;;;;;;;3.66;69.83;101836.88;130207;1286;107210;-83
2021/11/09 16:20:13;;;;;;;24.50;13.70;;;;;;;3.66;69.81;101843.40;130232;1285;108331;-78
2021/11/09 16:23:18;;;;;;;23.80;14.30;;;;;;;3.67;69.77;101842.30;130239;1285;109128;-81
2021/11/09 16:26:20;;;;;;;27.30;15.70;;;;;;;3.65;69.92;101845.39;130208;1286;108760;-77
2021/11/09 16:29:45;;;;;;;26.60;15.00;;;;;;;3.61;69.85;101847.66;130143;1285;97256;-79
2021/11/09 16:32:50;;;;;;;28.80;15.00;;;;;;;3.58;69.77;101847.29;130154;1284;108538;-82
2021/11/09 16:35:59;;;;;;;28.40;15.40;;;;;;;3.54;69.87;101849.71;130633;1287;108798;-84